Time;durP1;ratioP1;P1;durP2;ratioP2;P2;SDS_P1;SDS_P2;PMS_P1;PMS_P2;Temp;Humidity;BMP_temperature;BMP_pressure;BME280_temperature;BME280_humidity;BME280_pressure;Samples;Min_cycle;Max_cycle;Signal;HPM_P1;HPM_P2
2021/07/29 00:02:40;;;;;;;;;;;15.70;99.90;;;;;;5074670;28;19978;-58
2021/07/29 00:05:29;;;;;;;;;;;15.60;99.90;;;;;;5075729;28;19962;-59
2021/07/29 00:08:18;;;;;;;;;;;15.60;99.90;;;;;;5075400;28;19968;-59
2021/07/29 00:11:06;;;;;;;;;;;15.60;99.90;;;;;;5076253;28;19932;-58
2021/07/29 00:13:59;;;;;;;;;;;15.50;99.90;;;;;;5081205;28;19935;-60
2021/07/29 00:16:51;;;;;;;;;;;15.50;99.90;;;;;;5074493;28;19981;-59
2021/07/29 00:19:38;;;;;;;;;;;15.50;99.90;;;;;;5079179;28;19931;-58
2021/07/29 00:22:27;;;;;;;;;;;15.40;99.90;;;;;;5081013;28;19924;-59
2021/07/29 00:25:15;;;;;;;;;;;15.50;99.90;;;;;;5076986;28;20298;-59
2021/07/29 00:28:04;;;;;;;;;;;15.50;99.90;;;;;;5079169;28;19986;-59
2021/07/29 00:30:54;;;;;;;;;;;15.40;99.90;;;;;;5070978;28;19928;-58
2021/07/29 00:33:43;;;;;;;;;;;15.40;99.90;;;;;;5075191;28;19924;-59
2021/07/29 00:36:32;;;;;;;;;;;15.40;99.90;;;;;;5076561;28;19978;-59
2021/07/29 00:39:21;;;;;;;;;;;15.40;99.90;;;;;;5078239;28;19985;-59
2021/07/29 00:42:10;;;;;;;;;;;15.40;99.90;;;;;;5077238;28;20535;-59
2021/07/29 00:44:59;;;;;;;;;;;15.40;99.90;;;;;;5076801;28;19924;-61
2021/07/29 00:47:52;;;;;;;;;;;15.50;99.90;;;;;;5076411;28;27694;-59
2021/07/29 00:50:56;;;;;;;;;;;15.50;99.90;;;;;;5076203;28;20288;-60
2021/07/29 00:53:45;;;;;;;;;;;15.50;99.90;;;;;;5075864;28;19931;-59
2021/07/29 00:56:35;;;;;;;;;;;15.50;99.90;;;;;;5079027;28;19947;-59
2021/07/29 00:59:23;;;;;;;;;;;15.50;99.90;;;;;;5074732;28;19970;-59
2021/07/29 01:02:14;;;;;;;;;;;15.60;99.90;;;;;;5073261;28;19928;-60
2021/07/29 01:05:06;;;;;;;;;;;15.70;99.90;;;;;;5074165;28;20009;-58
2021/07/29 01:07:54;;;;;;;;;;;15.60;99.90;;;;;;5075862;28;19932;-59
2021/07/29 01:10:43;;;;;;;;;;;15.60;99.90;;;;;;5073815;28;20518;-59
2021/07/29 01:13:31;;;;;;;;;;;15.70;99.90;;;;;;5078808;28;19937;-59
2021/07/29 01:16:22;;;;;;;;;;;15.70;99.90;;;;;;5073952;28;19931;-59
2021/07/29 01:19:12;;;;;;;;;;;15.70;99.90;;;;;;5079201;28;19924;-59
2021/07/29 01:22:14;;;;;;;;;;;15.70;99.90;;;;;;5076695;28;19924;-59
2021/07/29 01:25:03;;;;;;;;;;;15.70;99.90;;;;;;5074064;28;19939;-59
2021/07/29 01:27:51;;;;;;;;;;;15.80;99.90;;;;;;5074200;28;19924;-59
2021/07/29 01:30:40;;;;;;;;;;;15.80;99.90;;;;;;5073681;28;19924;-60
2021/07/29 01:33:28;;;;;;;;;;;15.80;99.90;;;;;;5077500;28;19936;-59
2021/07/29 01:36:42;;;;;;;;;;;15.80;99.90;;;;;;5079551;28;20280;-59
2021/07/29 01:39:33;;;;;;;;;;;15.90;99.90;;;;;;5085730;28;20418;-59
2021/07/29 01:42:22;;;;;;;;;;;15.90;99.90;;;;;;5083733;28;19943;-59
2021/07/29 01:45:11;;;;;;;;;;;15.90;99.90;;;;;;5094154;28;19928;-62
2021/07/29 01:48:00;;;;;;;;;;;15.90;99.90;;;;;;5087276;28;19924;-59
2021/07/29 01:50:48;;;;;;;;;;;15.90;99.90;;;;;;5085939;28;20064;-59
2021/07/29 01:53:36;;;;;;;;;;;15.80;99.90;;;;;;5080781;28;19925;-60
2021/07/29 01:56:26;;;;;;;;;;;15.90;99.90;;;;;;5086832;28;19992;-59
2021/07/29 01:59:15;;;;;;;;;;;15.90;99.90;;;;;;5082121;28;19931;-59
2021/07/29 02:02:05;;;;;;;;;;;15.90;99.90;;;;;;5071502;28;20062;-59
2021/07/29 02:04:54;;;;;;;;;;;15.80;99.90;;;;;;5074200;28;19928;-59
2021/07/29 02:07:42;;;;;;;;;;;15.80;99.90;;;;;;5075784;28;19925;-61
2021/07/29 02:10:30;;;;;;;;;;;15.70;99.90;;;;;;5075525;28;19956;-59
2021/07/29 02:13:21;;;;;;;;;;;15.60;99.90;;;;;;5077267;28;19957;-59
2021/07/29 02:16:10;;;;;;;;;;;15.50;99.90;;;;;;5069744;28;19986;-59
2021/07/29 02:18:58;;;;;;;;;;;15.40;99.90;;;;;;5076661;28;19977;-59
2021/07/29 02:21:47;;;;;;;;;;;15.30;99.90;;;;;;5086064;28;19928;-62
2021/07/29 02:24:36;;;;;;;;;;;15.20;99.90;;;;;;5086320;28;19931;-58
2021/07/29 02:27:24;;;;;;;;;;;15.20;99.90;;;;;;5086879;28;19929;-58
2021/07/29 02:30:15;;;;;;;;;;;15.20;99.90;;;;;;5079867;28;20253;-59
2021/07/29 02:33:04;;;;;;;;;;;15.20;99.90;;;;;;5083741;28;19924;-59
2021/07/29 02:35:53;;;;;;;;;;;15.20;99.90;;;;;;5084426;28;19924;-59
2021/07/29 02:38:42;;;;;;;;;;;15.10;99.90;;;;;;5077851;28;19932;-59
2021/07/29 02:41:31;;;;;;;;;;;15.10;99.90;;;;;;5079941;28;19924;-59
2021/07/29 02:44:19;;;;;;;;;;;15.20;99.90;;;;;;5076148;28;19931;-58
2021/07/29 02:47:10;;;;;;;;;;;15.20;99.90;;;;;;5067804;28;20417;-59
2021/07/29 02:49:58;;;;;;;;;;;15.30;99.90;;;;;;5075809;28;19928;-59
2021/07/29 02:52:47;;;;;;;;;;;15.30;99.90;;;;;;5082157;28;19924;-59
2021/07/29 02:55:36;;;;;;;;;;;15.30;99.90;;;;;;5085926;28;19931;-59
2021/07/29 02:58:25;;;;;;;;;;;15.40;99.90;;;;;;5084284;28;19925;-59
2021/07/29 03:01:13;;;;;;;;;;;15.30;99.90;;;;;;5081541;28;19927;-59
2021/07/29 03:04:27;;;;;;;;;;;15.30;99.90;;;;;;5090658;28;19928;-59
2021/07/29 03:07:15;;;;;;;;;;;15.20;99.90;;;;;;5087193;28;19925;-59
2021/07/29 03:10:07;;;;;;;;;;;15.10;99.90;;;;;;5079340;28;19991;-59
2021/07/29 03:12:55;;;;;;;;;;;15.00;99.90;;;;;;5075585;28;19978;-59
2021/07/29 03:15:43;;;;;;;;;;;15.00;99.90;;;;;;5072830;28;19924;-61
2021/07/29 03:18:32;;;;;;;;;;;14.80;99.90;;;;;;5078665;28;20356;-59
2021/07/29 03:21:22;;;;;;;;;;;14.80;99.90;;;;;;5075086;28;20295;-59
2021/07/29 03:24:11;;;;;;;;;;;14.70;99.90;;;;;;5078279;28;19977;-59
2021/07/29 03:26:59;;;;;;;;;;;14.60;99.90;;;;;;5076621;28;19928;-59
2021/07/29 03:29:48;;;;;;;;;;;14.50;99.90;;;;;;5077298;28;19928;-59
2021/07/29 03:32:38;;;;;;;;;;;14.50;99.90;;;;;;5085563;28;19935;-59
2021/07/29 03:35:27;;;;;;;;;;;14.50;99.90;;;;;;5088461;28;19928;-59
2021/07/29 03:38:22;;;;;;;;;;;14.50;99.90;;;;;;5085550;28;19924;-59
2021/07/29 03:41:11;;;;;;;;;;;14.60;99.90;;;;;;5078314;28;20291;-59
2021/07/29 03:43:59;;;;;;;;;;;14.50;99.90;;;;;;5076647;28;19927;-59
2021/07/29 03:47:11;;;;;;;;;;;14.50;99.90;;;;;;5071552;28;20010;-59
2021/07/29 03:50:00;;;;;;;;;;;14.50;99.90;;;;;;5076433;28;19971;-59
2021/07/29 03:52:48;;;;;;;;;;;14.50;99.90;;;;;;5077448;28;19925;-59
2021/07/29 03:55:39;;;;;;;;;;;14.60;99.90;;;;;;5077542;28;19925;-59
2021/07/29 03:58:28;;;;;;;;;;;14.60;99.90;;;;;;5077921;28;19960;-59
2021/07/29 04:01:41;;;;;;;;;;;14.50;99.90;;;;;;5072621;28;19928;-59
2021/07/29 04:04:31;;;;;;;;;;;14.50;99.90;;;;;;5075252;28;20284;-59
2021/07/29 04:07:19;;;;;;;;;;;14.40;99.90;;;;;;5073514;28;19935;-59
2021/07/29 04:10:08;;;;;;;;;;;14.50;99.90;;;;;;5077089;28;19924;-59
2021/07/29 04:12:57;;;;;;;;;;;14.50;99.90;;;;;;5082070;28;20241;-60
2021/07/29 04:15:46;;;;;;;;;;;14.50;99.90;;;;;;5078038;28;19924;-59
2021/07/29 04:18:35;;;;;;;;;;;14.50;99.90;;;;;;5076236;28;19935;-59
2021/07/29 04:21:23;;;;;;;;;;;14.50;99.90;;;;;;5077850;28;19931;-59
2021/07/29 04:24:13;;;;;;;;;;;14.50;99.90;;;;;;5075971;28;19924;-59
2021/07/29 04:27:02;;;;;;;;;;;14.60;99.90;;;;;;5079403;28;20007;-59
2021/07/29 04:29:52;;;;;;;;;;;14.60;99.90;;;;;;5074943;28;20371;-59
2021/07/29 04:32:41;;;;;;;;;;;14.70;99.90;;;;;;5077226;28;19925;-59
2021/07/29 04:35:30;;;;;;;;;;;14.70;99.90;;;;;;5104831;28;19934;-59
2021/07/29 04:38:22;;;;;;;;;;;14.80;99.90;;;;;;5092780;28;19924;-59
2021/07/29 04:41:11;;;;;;;;;;;14.90;99.90;;;;;;5087782;28;19935;-59
2021/07/29 04:43:59;;;;;;;;;;;15.00;99.90;;;;;;5090022;28;20398;-62
2021/07/29 04:47:16;;;;;;;;;;;15.10;99.90;;;;;;5086220;28;19931;-59
2021/07/29 04:50:05;;;;;;;;;;;15.20;99.90;;;;;;5094335;28;20042;-61
2021/07/29 04:52:54;;;;;;;;;;;15.20;99.90;;;;;;5093274;28;20237;-59
2021/07/29 04:55:43;;;;;;;;;;;15.20;99.90;;;;;;5092422;28;19924;-59
2021/07/29 04:58:31;;;;;;;;;;;15.30;99.90;;;;;;5092131;28;19928;-60
2021/07/29 05:01:24;;;;;;;;;;;15.30;99.90;;;;;;5079848;28;19937;-59
2021/07/29 05:04:37;;;;;;;;;;;15.50;99.90;;;;;;5091321;28;20287;-61
2021/07/29 05:07:26;;;;;;;;;;;15.40;99.90;;;;;;5085576;28;19961;-59
2021/07/29 05:10:16;;;;;;;;;;;15.50;99.90;;;;;;5088967;28;19924;-59
2021/07/29 05:13:04;;;;;;;;;;;15.60;99.90;;;;;;5085078;28;20265;-60
2021/07/29 05:15:53;;;;;;;;;;;15.70;99.90;;;;;;5082143;28;19924;-59
2021/07/29 05:18:41;;;;;;;;;;;15.90;99.90;;;;;;5083734;28;20009;-59
2021/07/29 05:21:31;;;;;;;;;;;16.20;99.90;;;;;;5085315;28;20328;-59
2021/07/29 05:24:20;;;;;;;;;;;16.20;99.90;;;;;;5082519;28;20341;-60
2021/07/29 05:27:08;;;;;;;;;;;16.60;99.90;;;;;;5089283;28;19930;-59
2021/07/29 05:29:57;;;;;;;;;;;16.90;99.90;;;;;;5078721;28;19932;-59
2021/07/29 05:32:45;;;;;;;;;;;17.10;99.90;;;;;;5082090;28;19931;-59
2021/07/29 05:35:34;;;;;;;;;;;17.40;99.90;;;;;;5082646;28;19935;-59
2021/07/29 05:38:24;;;;;;;;;;;17.70;99.90;;;;;;5087212;28;19924;-58
2021/07/29 05:41:13;;;;;;;;;;;17.80;99.90;;;;;;5084418;28;19928;-60
2021/07/29 05:47:14;;;;;;;;;;;17.50;99.90;;;;;;5082458;28;19962;-59
2021/07/29 05:50:03;;;;;;;;;;;18.00;99.90;;;;;;5084287;28;19928;-59
2021/07/29 05:52:52;;;;;;;;;;;18.40;99.90;;;;;;5087372;28;20005;-59
2021/07/29 05:55:43;;;;;;;;;;;18.50;99.90;;;;;;5087585;28;19931;-59
2021/07/29 05:58:32;;;;;;;;;;;18.60;99.90;;;;;;5087838;28;19935;-59
2021/07/29 06:01:24;;;;;;;;;;;18.40;99.90;;;;;;5075217;28;19927;-58
2021/07/29 06:04:13;;;;;;;;;;;18.70;99.90;;;;;;5076643;28;19985;-59
2021/07/29 06:07:02;;;;;;;;;;;19.00;99.90;;;;;;5074621;28;19929;-58
2021/07/29 06:09:50;;;;;;;;;;;18.80;99.90;;;;;;5074048;28;19933;-59
2021/07/29 06:12:40;;;;;;;;;;;19.10;99.90;;;;;;5073866;28;19925;-61
2021/07/29 06:15:29;;;;;;;;;;;19.40;99.90;;;;;;5069145;28;19928;-59
2021/07/29 06:18:18;;;;;;;;;;;19.70;99.90;;;;;;5072128;28;19924;-59
2021/07/29 06:21:31;;;;;;;;;;;19.90;99.90;;;;;;5058843;28;20352;-58
2021/07/29 06:24:20;;;;;;;;;;;19.80;99.90;;;;;;5072123;28;19931;-58
2021/07/29 06:27:08;;;;;;;;;;;19.40;99.90;;;;;;5082176;28;19924;-59
2021/07/29 06:29:58;;;;;;;;;;;19.60;99.90;;;;;;5081014;28;19924;-60
2021/07/29 06:32:47;;;;;;;;;;;19.30;99.90;;;;;;5083042;28;20263;-58
2021/07/29 06:35:35;;;;;;;;;;;19.00;99.90;;;;;;5081529;28;19924;-58
2021/07/29 06:38:24;;;;;;;;;;;19.20;99.90;;;;;;5081654;28;20367;-59
2021/07/29 06:41:12;;;;;;;;;;;19.60;99.90;;;;;;5081445;28;19932;-58
2021/07/29 06:44:01;;;;;;;;;;;19.70;99.90;;;;;;5081443;28;20362;-58
2021/07/29 06:47:18;;;;;;;;;;;19.60;99.90;;;;;;5075405;28;20447;-58
2021/07/29 06:50:07;;;;;;;;;;;19.40;99.90;;;;;;5078019;28;19928;-58
2021/07/29 06:52:56;;;;;;;;;;;19.30;99.90;;;;;;5088303;28;19948;-59
2021/07/29 06:55:49;;;;;;;;;;;19.30;99.90;;;;;;5084645;28;19925;-59
2021/07/29 06:58:37;;;;;;;;;;;19.30;99.90;;;;;;5093792;28;19932;-59
2021/07/29 07:04:40;;;;;;;;;;;20.10;99.90;;;;;;5091867;28;19932;-59
2021/07/29 07:07:29;;;;;;;;;;;20.40;99.90;;;;;;5080974;28;19950;-59
2021/07/29 07:10:18;;;;;;;;;;;20.70;99.90;;;;;;5079347;28;19929;-59
2021/07/29 07:13:08;;;;;;;;;;;20.60;99.90;;;;;;5078665;28;19931;-60
2021/07/29 07:15:56;;;;;;;;;;;21.10;99.90;;;;;;5081002;28;19924;-59
2021/07/29 07:18:45;;;;;;;;;;;21.50;99.90;;;;;;5088650;28;20011;-59
2021/07/29 07:21:37;;;;;;;;;;;21.70;99.90;;;;;;5081502;28;19985;-60
2021/07/29 07:24:26;;;;;;;;;;;21.80;99.90;;;;;;5098697;28;19977;-59
2021/07/29 07:27:15;;;;;;;;;;;21.80;99.90;;;;;;5083238;28;21071;-59
2021/07/29 07:30:05;;;;;;;;;;;21.90;99.90;;;;;;5076454;28;20363;-59
2021/07/29 07:32:53;;;;;;;;;;;21.80;99.90;;;;;;5080966;28;20280;-59
2021/07/29 07:35:42;;;;;;;;;;;22.00;99.90;;;;;;5077203;28;20014;-59
2021/07/29 07:38:36;;;;;;;;;;;21.70;99.90;;;;;;5079630;28;19951;-61
2021/07/29 07:41:24;;;;;;;;;;;22.10;99.90;;;;;;5080656;28;20360;-59
2021/07/29 07:44:13;;;;;;;;;;;22.10;99.90;;;;;;5076056;28;19932;-59
2021/07/29 07:47:02;;;;;;;;;;;21.70;99.90;;;;;;5077794;28;20007;-59
2021/07/29 07:49:51;;;;;;;;;;;21.30;99.90;;;;;;5085873;28;19931;-60
2021/07/29 07:52:39;;;;;;;;;;;21.20;99.90;;;;;;5085900;28;19924;-59
2021/07/29 07:55:29;;;;;;;;;;;21.70;99.90;;;;;;5086125;28;20041;-59
2021/07/29 07:58:42;;;;;;;;;;;21.90;99.90;;;;;;5080848;28;19928;-59
2021/07/29 08:01:37;;;;;;;;;;;22.10;99.90;;;;;;5080628;28;20011;-59
2021/07/29 08:04:26;;;;;;;;;;;22.50;99.90;;;;;;5091159;28;20417;-60
2021/07/29 08:07:15;;;;;;;;;;;22.80;99.90;;;;;;5087767;28;19924;-59
2021/07/29 08:10:04;;;;;;;;;;;23.00;99.90;;;;;;5087743;28;19955;-59
2021/07/29 08:12:54;;;;;;;;;;;23.50;99.90;;;;;;5079110;28;19932;-59
2021/07/29 08:15:45;;;;;;;;;;;24.70;99.90;;;;;;5076964;28;20268;-60
2021/07/29 08:18:34;;;;;;;;;;;25.30;99.90;;;;;;5077108;28;20026;-59
2021/07/29 08:21:23;;;;;;;;;;;25.90;98.30;;;;;;5081494;28;19931;-60
2021/07/29 08:24:15;;;;;;;;;;;26.80;97.10;;;;;;5089865;28;20006;-60
2021/07/29 08:27:03;;;;;;;;;;;27.40;95.40;;;;;;5093914;28;19928;-63
2021/07/29 08:29:55;;;;;;;;;;;26.80;95.40;;;;;;5099385;28;19924;-61
2021/07/29 08:32:43;;;;;;;;;;;25.80;96.30;;;;;;5104105;28;19974;-60
2021/07/29 08:35:34;;;;;;;;;;;25.60;97.00;;;;;;5102378;28;19934;-60
2021/07/29 08:38:23;;;;;;;;;;;25.70;96.50;;;;;;5085463;28;20463;-60
2021/07/29 08:41:12;;;;;;;;;;;25.70;96.20;;;;;;5079114;28;19995;-59
2021/07/29 08:44:01;;;;;;;;;;;26.40;94.40;;;;;;5081199;28;19928;-59
2021/07/29 08:47:25;;;;;;;;;;;27.90;92.40;;;;;;5074391;28;19935;-60
2021/07/29 08:50:19;;;;;;;;;;;31.50;79.80;;;;;;5080372;28;19928;-60
2021/07/29 08:53:07;;;;;;;;;;;32.70;70.70;;;;;;5079291;28;19924;-60
2021/07/29 08:55:56;;;;;;;;;;;31.80;71.80;;;;;;5080496;28;19964;-60
2021/07/29 08:58:46;;;;;;;;;;;32.80;66.80;;;;;;5074208;28;20281;-60
2021/07/29 09:01:40;;;;;;;;;;;33.80;64.00;;;;;;5079194;28;19947;-60
2021/07/29 09:04:30;;;;;;;;;;;32.90;65.10;;;;;;5077544;28;19932;-60
2021/07/29 09:07:19;;;;;;;;;;;30.10;69.50;;;;;;5092019;28;19950;-62
2021/07/29 09:10:25;;;;;;;;;;;28.30;78.80;;;;;;5097623;28;20018;-60
2021/07/29 09:13:15;;;;;;;;;;;28.40;76.70;;;;;;5101868;28;19924;-60
2021/07/29 09:16:11;;;;;;;;;;;27.10;81.60;;;;;;5096798;28;19935;-60
2021/07/29 09:18:59;;;;;;;;;;;27.20;82.30;;;;;;5094356;28;19924;-60
2021/07/29 09:22:05;;;;;;;;;;;29.60;74.70;;;;;;5100382;28;19934;-59
2021/07/29 09:24:55;;;;;;;;;;;29.70;72.80;;;;;;5100876;28;19996;-59
2021/07/29 09:27:45;;;;;;;;;;;27.80;79.40;;;;;;5101393;28;19925;-59
2021/07/29 09:30:34;;;;;;;;;;;26.70;83.60;;;;;;5093214;28;19928;-59
2021/07/29 09:33:22;;;;;;;;;;;25.50;87.80;;;;;;5103954;28;19928;-59
2021/07/29 09:36:13;;;;;;;;;;;24.40;89.10;;;;;;5105737;28;19946;-59
2021/07/29 09:39:19;;;;;;;;;;;23.30;89.90;;;;;;5106333;28;19931;-61
2021/07/29 09:42:14;;;;;;;;;;;22.60;91.60;;;;;;5101052;28;20087;-58
2021/07/29 09:45:03;;;;;;;;;;;22.40;91.60;;;;;;5098280;28;19928;-58
2021/07/29 09:47:56;;;;;;;;;;;22.50;91.80;;;;;;5098081;28;19931;-59
2021/07/29 09:50:45;;;;;;;;;;;22.60;91.80;;;;;;5100224;28;19969;-59
2021/07/29 09:53:35;;;;;;;;;;;23.10;92.00;;;;;;5098083;28;19924;-59
2021/07/29 09:56:25;;;;;;;;;;;23.50;91.20;;;;;;5112626;28;19924;-58
2021/07/29 09:59:59;;;;;;;;;;;23.80;91.20;;;;;;5102594;28;20055;-59
2021/07/29 10:02:48;;;;;;;;;;;24.10;90.10;;;;;;5106263;28;19935;-59
2021/07/29 10:05:50;;;;;;;;;;;24.70;87.80;;;;;;5079520;28;19986;-59
2021/07/29 10:08:39;;;;;;;;;;;24.50;87.10;;;;;;5082265;28;19932;-59
2021/07/29 10:11:30;;;;;;;;;;;25.00;88.60;;;;;;5081327;28;19929;-58
2021/07/29 10:14:33;;;;;;;;;;;25.20;89.10;;;;;;5086392;28;20375;-59
2021/07/29 10:17:43;;;;;;;;;;;24.90;89.20;;;;;;5084634;28;19924;-59
2021/07/29 10:20:38;;;;;;;;;;;24.70;89.90;;;;;;5082985;28;19924;-59
2021/07/29 10:23:29;;;;;;;;;;;25.00;89.50;;;;;;5077153;28;19960;-62
2021/07/29 10:26:18;;;;;;;;;;;24.80;87.10;;;;;;5078821;28;20391;-58
2021/07/29 10:29:25;;;;;;;;;;;25.70;85.80;;;;;;5076282;28;20380;-59
2021/07/29 10:32:14;;;;;;;;;;;25.90;81.70;;;;;;5075549;28;19951;-59
2021/07/29 10:35:27;;;;;;;;;;;25.80;82.80;;;;;;5079355;28;19924;-59
2021/07/29 10:38:41;;;;;;;;;;;25.00;85.50;;;;;;5078630;28;19940;-59
2021/07/29 10:41:42;;;;;;;;;;;24.60;88.30;;;;;;5086692;28;19973;-59
2021/07/29 10:44:46;;;;;;;;;;;24.60;89.10;;;;;;5085543;28;19989;-59
2021/07/29 10:47:36;;;;;;;;;;;24.70;90.20;;;;;;5081654;28;19924;-59
2021/07/29 10:50:25;;;;;;;;;;;24.40;90.20;;;;;;5074388;28;19924;-59
2021/07/29 10:56:26;;;;;;;;;;;24.50;91.10;;;;;;5081363;28;20284;-59
2021/07/29 10:59:18;;;;;;;;;;;24.60;90.30;;;;;;5073954;28;19988;-60
2021/07/29 11:02:11;;;;;;;;;;;25.40;88.60;;;;;;5074918;28;20217;-59
2021/07/29 11:05:03;;;;;;;;;;;25.40;88.70;;;;;;5078520;28;20716;-59
2021/07/29 11:07:57;;;;;;;;;;;24.70;89.20;;;;;;5080045;28;20007;-60
2021/07/29 11:10:46;;;;;;;;;;;24.90;89.60;;;;;;5079548;28;19931;-59
2021/07/29 11:13:36;;;;;;;;;;;25.40;89.30;;;;;;5080694;28;19925;-59
2021/07/29 11:16:25;;;;;;;;;;;24.80;88.70;;;;;;5073248;28;19925;-59
2021/07/29 11:19:14;;;;;;;;;;;25.40;89.50;;;;;;5079789;28;19928;-61
2021/07/29 11:22:06;;;;;;;;;;;25.60;87.10;;;;;;5082429;28;19947;-60
2021/07/29 11:24:55;;;;;;;;;;;27.20;83.60;;;;;;5078994;28;19931;-58
2021/07/29 11:27:44;;;;;;;;;;;27.90;79.30;;;;;;5083124;28;20011;-59
2021/07/29 11:30:41;;;;;;;;;;;27.70;77.30;;;;;;5075782;28;19962;-62
2021/07/29 11:33:30;;;;;;;;;;;28.40;76.20;;;;;;5078656;28;19931;-59
2021/07/29 11:36:20;;;;;;;;;;;27.90;77.50;;;;;;5082848;28;19924;-58
2021/07/29 11:39:09;;;;;;;;;;;27.30;80.20;;;;;;5078836;28;19928;-59
2021/07/29 11:41:58;;;;;;;;;;;26.60;81.30;;;;;;5079592;28;19924;-59
2021/07/29 11:44:49;;;;;;;;;;;25.30;84.30;;;;;;5080322;28;20291;-59
2021/07/29 11:47:38;;;;;;;;;;;24.70;86.20;;;;;;5076441;28;19928;-59
2021/07/29 11:50:35;;;;;;;;;;;24.70;87.90;;;;;;5075871;28;20007;-61
2021/07/29 11:53:36;;;;;;;;;;;24.70;88.70;;;;;;5081371;28;19950;-59
2021/07/29 11:56:25;;;;;;;;;;;24.80;88.30;;;;;;5079586;28;20391;-59
2021/07/29 11:59:14;;;;;;;;;;;24.60;88.30;;;;;;5078001;28;19928;-59
2021/07/29 12:02:03;;;;;;;;;;;24.20;88.80;;;;;;5075813;28;20023;-58
2021/07/29 12:04:52;;;;;;;;;;;24.40;90.30;;;;;;5080236;28;19925;-59
2021/07/29 12:07:42;;;;;;;;;;;24.50;88.00;;;;;;5080427;28;20307;-59
2021/07/29 12:10:35;;;;;;;;;;;24.80;88.20;;;;;;5076993;28;20024;-59
2021/07/29 12:13:24;;;;;;;;;;;24.70;87.40;;;;;;5079165;28;19928;-58
2021/07/29 12:16:12;;;;;;;;;;;24.60;87.00;;;;;;5072088;28;19924;-58
2021/07/29 12:19:04;;;;;;;;;;;24.70;87.70;;;;;;5080538;28;19924;-59
2021/07/29 12:21:53;;;;;;;;;;;24.80;87.50;;;;;;5076467;28;19964;-59
2021/07/29 12:24:44;;;;;;;;;;;24.90;87.20;;;;;;5079679;28;20624;-59
2021/07/29 12:27:45;;;;;;;;;;;24.60;87.50;;;;;;5079703;28;19924;-59
2021/07/29 12:30:35;;;;;;;;;;;24.80;87.80;;;;;;5076207;28;19928;-59
2021/07/29 12:33:25;;;;;;;;;;;24.80;86.70;;;;;;5097203;28;20007;-58
2021/07/29 12:36:14;;;;;;;;;;;25.00;87.10;;;;;;5098785;28;19924;-59
2021/07/29 12:39:03;;;;;;;;;;;24.90;87.50;;;;;;5087789;28;19955;-59
2021/07/29 12:41:52;;;;;;;;;;;24.60;87.10;;;;;;5084572;28;20247;-59
2021/07/29 12:44:55;;;;;;;;;;;24.40;87.50;;;;;;5075906;28;19932;-58
2021/07/29 12:47:59;;;;;;;;;;;24.40;88.50;;;;;;5078892;28;20451;-58
2021/07/29 12:50:49;;;;;;;;;;;24.70;88.80;;;;;;5082777;28;19951;-59
2021/07/29 12:54:02;;;;;;;;;;;24.70;87.30;;;;;;5078008;28;19931;-62
2021/07/29 12:57:04;;;;;;;;;;;24.80;88.60;;;;;;5078933;28;19947;-59
2021/07/29 12:59:54;;;;;;;;;;;25.00;87.10;;;;;;5082144;28;20206;-59
2021/07/29 13:02:43;;;;;;;;;;;24.70;86.60;;;;;;5079512;28;19924;-59
2021/07/29 13:05:32;;;;;;;;;;;24.20;87.60;;;;;;5086158;28;19924;-60
2021/07/29 13:08:22;;;;;;;;;;;24.20;88.70;;;;;;5080230;28;19925;-59
2021/07/29 13:11:10;;;;;;;;;;;24.40;88.90;;;;;;5077651;28;20098;-58
2021/07/29 13:13:59;;;;;;;;;;;24.60;86.70;;;;;;5081554;28;19924;-58
2021/07/29 13:16:47;;;;;;;;;;;24.50;86.70;;;;;;5080077;28;19925;-60
2021/07/29 13:19:36;;;;;;;;;;;24.10;86.40;;;;;;5077414;28;19928;-58
2021/07/29 13:22:24;;;;;;;;;;;24.20;87.50;;;;;;5078486;28;19924;-59
2021/07/29 13:25:18;;;;;;;;;;;24.30;87.60;;;;;;5078673;28;19932;-58
2021/07/29 13:28:06;;;;;;;;;;;24.40;87.30;;;;;;5076559;28;19928;-58
2021/07/29 13:30:55;;;;;;;;;;;24.40;87.10;;;;;;5074006;28;20387;-62
2021/07/29 13:33:43;;;;;;;;;;;24.50;86.10;;;;;;5083251;28;19924;-58
2021/07/29 13:36:32;;;;;;;;;;;24.30;87.30;;;;;;5081647;28;19928;-58
2021/07/29 13:39:21;;;;;;;;;;;24.20;86.80;;;;;;5081960;28;19925;-59
2021/07/29 13:42:11;;;;;;;;;;;24.10;86.50;;;;;;5082193;28;19924;-58
2021/07/29 13:48:03;;;;;;;;;;;24.20;87.60;;;;;;5055527;28;20283;-59
2021/07/29 13:54:06;;;;;;;;;;;24.50;86.00;;;;;;5073911;28;19925;-58
2021/07/29 13:56:55;;;;;;;;;;;24.40;85.70;;;;;;5061030;28;19932;-59
2021/07/29 13:59:45;;;;;;;;;;;24.40;86.20;;;;;;5066031;28;19925;-58
2021/07/29 14:02:34;;;;;;;;;;;24.30;85.80;;;;;;5058872;28;19924;-58
2021/07/29 14:05:23;;;;;;;;;;;24.20;86.10;;;;;;5071863;28;20438;-58
2021/07/29 14:08:12;;;;;;;;;;;24.40;85.70;;;;;;5066138;28;19932;-58
2021/07/29 14:11:03;;;;;;;;;;;24.10;85.60;;;;;;5067829;28;19931;-59
2021/07/29 14:13:51;;;;;;;;;;;24.40;85.80;;;;;;5065872;28;19925;-59
2021/07/29 14:16:41;;;;;;;;;;;24.70;86.20;;;;;;5067602;28;19925;-59
2021/07/29 14:19:37;;;;;;;;;;;24.80;84.30;;;;;;5057342;28;19947;-60
2021/07/29 14:25:34;;;;;;;;;;;24.60;84.40;;;;;;5058305;28;19924;-60
2021/07/29 14:28:25;;;;;;;;;;;24.40;84.70;;;;;;5055314;28;19951;-60
2021/07/29 14:31:14;;;;;;;;;;;24.60;85.30;;;;;;5051022;28;19944;-60
2021/07/29 14:34:04;;;;;;;;;;;24.70;83.60;;;;;;5055211;28;19937;-60
2021/07/29 14:36:53;;;;;;;;;;;24.70;83.90;;;;;;5058156;28;19959;-60
2021/07/29 14:39:42;;;;;;;;;;;24.90;85.00;;;;;;5039644;28;19928;-60
2021/07/29 14:42:31;;;;;;;;;;;25.00;83.90;;;;;;5037425;28;19925;-59
2021/07/29 14:49:08;;;;;;;;;;;24.70;83.70;;;;;;5037407;28;19925;-59
2021/07/29 14:51:59;;;;;;;;;;;24.50;83.90;;;;;;5043830;28;19979;-59
2021/07/29 14:54:47;;;;;;;;;;;24.50;84.30;;;;;;5052121;28;20430;-59
2021/07/29 16:09:47;;;;;;;;;;;24.40;84.00;;;;;;5099570;28;19924;-60
2021/07/29 16:12:36;;;;;;;;;;;24.40;84.60;;;;;;5095080;28;19924;-60
2021/07/29 16:15:24;;;;;;;;;;;24.50;84.60;;;;;;5078017;28;19950;-60
2021/07/29 16:18:13;;;;;;;;;;;24.50;84.40;;;;;;5070120;28;19925;-61
2021/07/29 16:21:04;;;;;;;;;;;24.50;84.70;;;;;;5056308;28;19932;-59
2021/07/29 16:23:53;;;;;;;;;;;24.30;84.50;;;;;;5055276;28;19925;-60
2021/07/29 16:26:42;;;;;;;;;;;24.40;85.50;;;;;;5053400;28;20360;-60
2021/07/29 16:29:31;;;;;;;;;;;24.40;84.40;;;;;;5050487;28;19931;-59
2021/07/29 16:32:20;;;;;;;;;;;24.30;85.70;;;;;;5047100;28;19929;-59
2021/07/29 16:35:09;;;;;;;;;;;24.10;84.80;;;;;;5048733;28;19948;-60
2021/07/29 16:37:59;;;;;;;;;;;23.90;85.30;;;;;;5049226;28;19937;-59
2021/07/29 16:40:48;;;;;;;;;;;23.80;86.10;;;;;;5053077;28;19936;-59
2021/07/29 16:43:37;;;;;;;;;;;23.70;85.70;;;;;;5047651;28;19932;-59
2021/07/29 16:46:25;;;;;;;;;;;23.80;86.50;;;;;;5048320;28;19931;-60
2021/07/29 16:49:15;;;;;;;;;;;23.90;86.50;;;;;;5052017;28;19925;-58
2021/07/29 16:52:03;;;;;;;;;;;24.10;86.60;;;;;;5049938;28;20272;-58
2021/07/29 16:54:53;;;;;;;;;;;24.00;85.60;;;;;;5049182;28;19935;-58
2021/07/29 16:57:42;;;;;;;;;;;23.90;85.30;;;;;;5048256;28;19936;-58
2021/07/29 17:00:31;;;;;;;;;;;23.90;86.10;;;;;;5055151;28;19947;-60
2021/07/29 17:03:20;;;;;;;;;;;23.90;85.90;;;;;;5069299;28;19935;-58
2021/07/29 17:06:09;;;;;;;;;;;24.00;86.30;;;;;;5077467;28;19942;-59
2021/07/29 17:08:57;;;;;;;;;;;23.90;85.80;;;;;;5072777;28;19994;-59
2021/07/29 17:11:48;;;;;;;;;;;23.90;85.90;;;;;;5058731;28;19935;-59
2021/07/29 17:14:36;;;;;;;;;;;23.90;86.30;;;;;;5071291;28;19925;-58
2021/07/29 17:17:25;;;;;;;;;;;23.90;86.30;;;;;;5060271;28;19955;-59
2021/07/29 17:20:14;;;;;;;;;;;23.90;86.10;;;;;;5072122;28;19939;-59
2021/07/29 17:23:05;;;;;;;;;;;23.90;85.70;;;;;;5097621;27;20416;-59
2021/07/29 17:25:54;;;;;;;;;;;23.80;86.00;;;;;;5071203;28;19968;-58
2021/07/29 17:28:44;;;;;;;;;;;23.80;86.30;;;;;;5074791;28;19924;-58
2021/07/29 17:31:33;;;;;;;;;;;23.80;86.60;;;;;;5067370;28;19932;-59
2021/07/29 17:34:23;;;;;;;;;;;23.80;86.80;;;;;;5074367;28;19924;-59
2021/07/29 17:37:11;;;;;;;;;;;23.80;86.50;;;;;;5072206;28;19990;-59
2021/07/29 17:40:00;;;;;;;;;;;23.70;86.20;;;;;;5072168;28;19924;-59
2021/07/29 17:42:50;;;;;;;;;;;23.60;86.70;;;;;;5076519;28;19931;-59
2021/07/29 17:45:40;;;;;;;;;;;23.50;86.70;;;;;;5069880;28;19924;-59
2021/07/29 17:48:29;;;;;;;;;;;23.40;87.30;;;;;;5071951;28;19924;-59
2021/07/29 17:51:19;;;;;;;;;;;23.40;87.00;;;;;;5069531;28;19924;-59
2021/07/29 17:54:07;;;;;;;;;;;23.30;87.10;;;;;;5072903;28;19928;-60
2021/07/29 17:56:56;;;;;;;;;;;23.20;87.20;;;;;;5070400;28;19924;-58
2021/07/29 17:59:44;;;;;;;;;;;23.20;87.60;;;;;;5095937;28;19925;-58
2021/07/29 18:03:11;;;;;;;;;;;23.10;87.90;;;;;;5060746;28;19935;-58
2021/07/29 18:06:01;;;;;;;;;;;23.10;87.80;;;;;;5074508;28;19930;-59
2021/07/29 18:08:50;;;;;;;;;;;23.00;88.40;;;;;;5071198;28;19928;-58
2021/07/29 18:11:38;;;;;;;;;;;23.00;88.50;;;;;;5068400;28;19928;-58